sensor_id;sensor_type;location;lat;lon;timestamp;P1;durP1;ratioP1;P2;durP2;ratioP2
30036;SDS011;36325;51.512;-0.382;2022-11-20T00:01:11;50.08;;;18.85;;
30036;SDS011;36325;51.512;-0.382;2022-11-20T00:03:42;36.55;;;15.43;;
30036;SDS011;36325;51.512;-0.382;2022-11-20T00:06:11;26.30;;;14.15;;
30036;SDS011;36325;51.512;-0.382;2022-11-20T00:08:40;38.20;;;16.10;;
30036;SDS011;36325;51.512;-0.382;2022-11-20T00:11:12;44.45;;;17.00;;
30036;SDS011;36325;51.512;-0.382;2022-11-20T00:13:45;33.47;;;14.77;;
30036;SDS011;36325;51.512;-0.382;2022-11-20T00:16:15;36.00;;;15.40;;
30036;SDS011;36325;51.512;-0.382;2022-11-20T00:18:44;40.30;;;14.23;;
30036;SDS011;36325;51.512;-0.382;2022-11-20T00:21:13;34.30;;;13.95;;
30036;SDS011;36325;51.512;-0.382;2022-11-20T00:23:42;48.83;;;17.23;;
30036;SDS011;36325;51.512;-0.382;2022-11-20T00:26:11;42.65;;;16.25;;
30036;SDS011;36325;51.512;-0.382;2022-11-20T00:28:40;40.92;;;15.95;;
30036;SDS011;36325;51.512;-0.382;2022-11-20T00:31:12;31.95;;;14.30;;
30036;SDS011;36325;51.512;-0.382;2022-11-20T00:33:42;33.10;;;15.23;;
30036;SDS011;36325;51.512;-0.382;2022-11-20T00:36:11;41.90;;;15.00;;
30036;SDS011;36325;51.512;-0.382;2022-11-20T00:38:46;39.25;;;14.73;;
30036;SDS011;36325;51.512;-0.382;2022-11-20T00:41:14;39.38;;;14.05;;
30036;SDS011;36325;51.512;-0.382;2022-11-20T00:43:42;43.03;;;15.20;;
30036;SDS011;36325;51.512;-0.382;2022-11-20T00:46:14;33.78;;;14.60;;
30036;SDS011;36325;51.512;-0.382;2022-11-20T00:48:43;40.25;;;14.35;;
30036;SDS011;36325;51.512;-0.382;2022-11-20T00:51:11;37.88;;;15.80;;
30036;SDS011;36325;51.512;-0.382;2022-11-20T00:53:43;37.83;;;15.10;;
30036;SDS011;36325;51.512;-0.382;2022-11-20T00:56:11;33.58;;;13.88;;
30036;SDS011;36325;51.512;-0.382;2022-11-20T00:58:42;29.52;;;13.02;;
30036;SDS011;36325;51.512;-0.382;2022-11-20T01:03:43;35.33;;;15.48;;
30036;SDS011;36325;51.512;-0.382;2022-11-20T01:06:12;34.38;;;15.02;;
30036;SDS011;36325;51.512;-0.382;2022-11-20T01:08:42;37.95;;;17.20;;
30036;SDS011;36325;51.512;-0.382;2022-11-20T01:11:10;36.70;;;16.13;;
30036;SDS011;36325;51.512;-0.382;2022-11-20T01:13:39;35.95;;;15.45;;
30036;SDS011;36325;51.512;-0.382;2022-11-20T01:16:09;30.58;;;14.93;;
30036;SDS011;36325;51.512;-0.382;2022-11-20T01:18:40;40.80;;;15.10;;
30036;SDS011;36325;51.512;-0.382;2022-11-20T01:21:10;36.03;;;14.55;;
30036;SDS011;36325;51.512;-0.382;2022-11-20T01:23:39;32.00;;;14.63;;
30036;SDS011;36325;51.512;-0.382;2022-11-20T01:26:11;36.20;;;15.07;;
30036;SDS011;36325;51.512;-0.382;2022-11-20T01:28:40;32.50;;;14.60;;
30036;SDS011;36325;51.512;-0.382;2022-11-20T01:33:53;27.48;;;10.98;;
30036;SDS011;36325;51.512;-0.382;2022-11-20T01:36:23;36.17;;;13.80;;
30036;SDS011;36325;51.512;-0.382;2022-11-20T01:38:53;27.65;;;11.73;;
30036;SDS011;36325;51.512;-0.382;2022-11-20T01:41:21;31.63;;;11.93;;
30036;SDS011;36325;51.512;-0.382;2022-11-20T01:44:09;29.83;;;12.88;;
30036;SDS011;36325;51.512;-0.382;2022-11-20T01:46:38;29.73;;;12.07;;
30036;SDS011;36325;51.512;-0.382;2022-11-20T01:49:17;23.98;;;11.05;;
30036;SDS011;36325;51.512;-0.382;2022-11-20T01:54:33;19.38;;;9.43;;
30036;SDS011;36325;51.512;-0.382;2022-11-20T01:57:05;24.40;;;8.13;;
30036;SDS011;36325;51.512;-0.382;2022-11-20T01:59:36;18.88;;;8.10;;
30036;SDS011;36325;51.512;-0.382;2022-11-20T02:02:11;18.08;;;6.63;;
30036;SDS011;36325;51.512;-0.382;2022-11-20T02:04:38;17.02;;;6.47;;
30036;SDS011;36325;51.512;-0.382;2022-11-20T02:07:05;15.55;;;6.15;;
30036;SDS011;36325;51.512;-0.382;2022-11-20T02:09:33;16.92;;;6.43;;
30036;SDS011;36325;51.512;-0.382;2022-11-20T02:12:01;19.52;;;6.65;;
30036;SDS011;36325;51.512;-0.382;2022-11-20T02:14:29;22.15;;;7.45;;
30036;SDS011;36325;51.512;-0.382;2022-11-20T02:16:56;19.33;;;7.35;;
30036;SDS011;36325;51.512;-0.382;2022-11-20T02:22:39;17.73;;;7.40;;
30036;SDS011;36325;51.512;-0.382;2022-11-20T02:24:53;17.88;;;6.28;;
30036;SDS011;36325;51.512;-0.382;2022-11-20T02:27:20;15.57;;;6.50;;
30036;SDS011;36325;51.512;-0.382;2022-11-20T02:32:28;14.48;;;5.72;;
30036;SDS011;36325;51.512;-0.382;2022-11-20T02:34:57;18.30;;;7.00;;
30036;SDS011;36325;51.512;-0.382;2022-11-20T02:37:32;16.65;;;6.70;;
30036;SDS011;36325;51.512;-0.382;2022-11-20T02:40:03;18.40;;;6.25;;
30036;SDS011;36325;51.512;-0.382;2022-11-20T02:42:30;15.20;;;7.35;;
30036;SDS011;36325;51.512;-0.382;2022-11-20T02:44:58;14.27;;;6.45;;
30036;SDS011;36325;51.512;-0.382;2022-11-20T02:47:25;16.10;;;6.47;;
30036;SDS011;36325;51.512;-0.382;2022-11-20T02:49:52;18.40;;;6.47;;
30036;SDS011;36325;51.512;-0.382;2022-11-20T02:52:19;21.95;;;8.10;;
30036;SDS011;36325;51.512;-0.382;2022-11-20T02:54:46;15.05;;;6.43;;
30036;SDS011;36325;51.512;-0.382;2022-11-20T02:57:13;22.70;;;6.53;;
30036;SDS011;36325;51.512;-0.382;2022-11-20T02:59:40;25.48;;;6.88;;
30036;SDS011;36325;51.512;-0.382;2022-11-20T03:02:07;15.98;;;5.95;;
30036;SDS011;36325;51.512;-0.382;2022-11-20T03:04:34;20.55;;;6.57;;
30036;SDS011;36325;51.512;-0.382;2022-11-20T03:07:01;15.52;;;5.90;;
30036;SDS011;36325;51.512;-0.382;2022-11-20T03:09:29;15.85;;;5.50;;
30036;SDS011;36325;51.512;-0.382;2022-11-20T03:11:57;16.67;;;5.68;;
30036;SDS011;36325;51.512;-0.382;2022-11-20T03:14:24;21.10;;;7.55;;
30036;SDS011;36325;51.512;-0.382;2022-11-20T03:16:51;18.92;;;6.60;;
30036;SDS011;36325;51.512;-0.382;2022-11-20T03:19:18;15.38;;;6.75;;
30036;SDS011;36325;51.512;-0.382;2022-11-20T03:21:46;18.13;;;6.38;;
30036;SDS011;36325;51.512;-0.382;2022-11-20T03:24:14;14.60;;;7.15;;
30036;SDS011;36325;51.512;-0.382;2022-11-20T03:26:41;13.32;;;5.53;;
30036;SDS011;36325;51.512;-0.382;2022-11-20T03:29:08;13.25;;;5.07;;
30036;SDS011;36325;51.512;-0.382;2022-11-20T03:31:36;16.45;;;5.40;;
30036;SDS011;36325;51.512;-0.382;2022-11-20T03:34:07;19.48;;;5.85;;
30036;SDS011;36325;51.512;-0.382;2022-11-20T03:36:36;19.67;;;6.47;;
30036;SDS011;36325;51.512;-0.382;2022-11-20T03:39:05;16.17;;;5.20;;
30036;SDS011;36325;51.512;-0.382;2022-11-20T03:41:35;14.65;;;5.40;;
30036;SDS011;36325;51.512;-0.382;2022-11-20T03:44:06;21.08;;;7.00;;
30036;SDS011;36325;51.512;-0.382;2022-11-20T03:46:34;11.40;;;4.78;;
30036;SDS011;36325;51.512;-0.382;2022-11-20T03:49:02;14.35;;;5.00;;
30036;SDS011;36325;51.512;-0.382;2022-11-20T03:51:30;16.45;;;5.65;;
30036;SDS011;36325;51.512;-0.382;2022-11-20T03:53:59;16.90;;;4.78;;
30036;SDS011;36325;51.512;-0.382;2022-11-20T03:56:30;16.67;;;5.60;;
30036;SDS011;36325;51.512;-0.382;2022-11-20T03:58:58;18.60;;;5.65;;
30036;SDS011;36325;51.512;-0.382;2022-11-20T04:01:27;14.82;;;4.82;;
30036;SDS011;36325;51.512;-0.382;2022-11-20T04:03:59;13.57;;;5.18;;
30036;SDS011;36325;51.512;-0.382;2022-11-20T04:06:27;16.92;;;5.60;;
30036;SDS011;36325;51.512;-0.382;2022-11-20T04:08:56;20.42;;;5.93;;
30036;SDS011;36325;51.512;-0.382;2022-11-20T04:11:25;19.80;;;6.43;;
30036;SDS011;36325;51.512;-0.382;2022-11-20T04:13:56;17.67;;;6.13;;
30036;SDS011;36325;51.512;-0.382;2022-11-20T04:16:25;17.60;;;6.15;;
30036;SDS011;36325;51.512;-0.382;2022-11-20T04:18:56;10.77;;;6.18;;
30036;SDS011;36325;51.512;-0.382;2022-11-20T04:21:25;17.25;;;5.20;;
30036;SDS011;36325;51.512;-0.382;2022-11-20T04:23:53;14.32;;;4.90;;
30036;SDS011;36325;51.512;-0.382;2022-11-20T04:26:22;21.10;;;6.05;;
30036;SDS011;36325;51.512;-0.382;2022-11-20T04:28:50;16.80;;;5.53;;
30036;SDS011;36325;51.512;-0.382;2022-11-20T04:31:19;16.15;;;5.45;;
30036;SDS011;36325;51.512;-0.382;2022-11-20T04:33:48;11.63;;;5.25;;
30036;SDS011;36325;51.512;-0.382;2022-11-20T04:36:17;20.75;;;5.85;;
30036;SDS011;36325;51.512;-0.382;2022-11-20T04:38:52;30.50;;;7.97;;
30036;SDS011;36325;51.512;-0.382;2022-11-20T04:41:23;19.85;;;5.80;;
30036;SDS011;36325;51.512;-0.382;2022-11-20T04:43:52;21.90;;;5.82;;
30036;SDS011;36325;51.512;-0.382;2022-11-20T04:46:26;14.80;;;5.50;;
30036;SDS011;36325;51.512;-0.382;2022-11-20T04:48:54;18.77;;;6.28;;
30036;SDS011;36325;51.512;-0.382;2022-11-20T04:51:22;17.95;;;5.38;;
30036;SDS011;36325;51.512;-0.382;2022-11-20T04:53:49;13.68;;;5.70;;
30036;SDS011;36325;51.512;-0.382;2022-11-20T04:56:16;17.20;;;5.22;;
30036;SDS011;36325;51.512;-0.382;2022-11-20T04:58:43;21.67;;;6.07;;
30036;SDS011;36325;51.512;-0.382;2022-11-20T05:01:12;14.75;;;5.57;;
30036;SDS011;36325;51.512;-0.382;2022-11-20T05:03:41;19.52;;;5.53;;
30036;SDS011;36325;51.512;-0.382;2022-11-20T05:06:13;8.25;;;4.53;;
30036;SDS011;36325;51.512;-0.382;2022-11-20T05:08:42;14.10;;;5.07;;
30036;SDS011;36325;51.512;-0.382;2022-11-20T05:11:10;17.05;;;5.60;;
30036;SDS011;36325;51.512;-0.382;2022-11-20T05:13:39;12.77;;;4.75;;
30036;SDS011;36325;51.512;-0.382;2022-11-20T05:16:07;20.95;;;4.65;;
30036;SDS011;36325;51.512;-0.382;2022-11-20T05:18:39;11.07;;;4.53;;
30036;SDS011;36325;51.512;-0.382;2022-11-20T05:21:07;15.23;;;5.65;;
30036;SDS011;36325;51.512;-0.382;2022-11-20T05:23:36;14.13;;;5.20;;
30036;SDS011;36325;51.512;-0.382;2022-11-20T05:26:03;18.13;;;5.70;;
30036;SDS011;36325;51.512;-0.382;2022-11-20T05:28:31;17.02;;;5.40;;
30036;SDS011;36325;51.512;-0.382;2022-11-20T05:31:06;20.83;;;6.70;;
30036;SDS011;36325;51.512;-0.382;2022-11-20T05:33:36;16.83;;;5.90;;
30036;SDS011;36325;51.512;-0.382;2022-11-20T05:36:03;20.38;;;5.28;;
30036;SDS011;36325;51.512;-0.382;2022-11-20T05:38:31;15.80;;;6.60;;
30036;SDS011;36325;51.512;-0.382;2022-11-20T05:41:09;16.33;;;5.45;;
30036;SDS011;36325;51.512;-0.382;2022-11-20T05:43:45;14.90;;;5.07;;
30036;SDS011;36325;51.512;-0.382;2022-11-20T05:46:14;14.10;;;4.55;;
30036;SDS011;36325;51.512;-0.382;2022-11-20T05:48:43;17.17;;;4.93;;
30036;SDS011;36325;51.512;-0.382;2022-11-20T05:51:13;20.70;;;4.25;;
30036;SDS011;36325;51.512;-0.382;2022-11-20T05:53:42;13.07;;;4.60;;
30036;SDS011;36325;51.512;-0.382;2022-11-20T05:56:14;14.27;;;4.55;;
30036;SDS011;36325;51.512;-0.382;2022-11-20T05:58:44;13.55;;;5.22;;
30036;SDS011;36325;51.512;-0.382;2022-11-20T06:01:22;20.67;;;4.40;;
30036;SDS011;36325;51.512;-0.382;2022-11-20T06:03:51;16.58;;;5.85;;
30036;SDS011;36325;51.512;-0.382;2022-11-20T06:06:20;10.80;;;4.70;;
30036;SDS011;36325;51.512;-0.382;2022-11-20T06:08:47;17.73;;;4.88;;
30036;SDS011;36325;51.512;-0.382;2022-11-20T06:11:15;9.35;;;4.38;;
30036;SDS011;36325;51.512;-0.382;2022-11-20T06:13:43;14.80;;;5.55;;
30036;SDS011;36325;51.512;-0.382;2022-11-20T06:16:13;10.70;;;4.90;;
30036;SDS011;36325;51.512;-0.382;2022-11-20T06:18:42;13.98;;;5.35;;
30036;SDS011;36325;51.512;-0.382;2022-11-20T06:21:10;12.43;;;5.22;;
30036;SDS011;36325;51.512;-0.382;2022-11-20T06:23:39;13.38;;;5.28;;
30036;SDS011;36325;51.512;-0.382;2022-11-20T06:26:08;11.25;;;4.03;;
30036;SDS011;36325;51.512;-0.382;2022-11-20T06:28:37;15.85;;;5.07;;
30036;SDS011;36325;51.512;-0.382;2022-11-20T06:31:05;9.07;;;4.55;;
30036;SDS011;36325;51.512;-0.382;2022-11-20T06:33:33;16.10;;;6.05;;
30036;SDS011;36325;51.512;-0.382;2022-11-20T06:36:00;17.85;;;6.35;;
30036;SDS011;36325;51.512;-0.382;2022-11-20T06:38:34;20.50;;;5.68;;
30036;SDS011;36325;51.512;-0.382;2022-11-20T06:41:02;17.50;;;6.22;;
30036;SDS011;36325;51.512;-0.382;2022-11-20T06:43:30;18.10;;;5.70;;
30036;SDS011;36325;51.512;-0.382;2022-11-20T06:45:58;28.92;;;5.80;;
30036;SDS011;36325;51.512;-0.382;2022-11-20T06:48:26;17.35;;;6.22;;
30036;SDS011;36325;51.512;-0.382;2022-11-20T06:50:54;31.35;;;8.10;;
30036;SDS011;36325;51.512;-0.382;2022-11-20T06:53:22;13.95;;;5.88;;
30036;SDS011;36325;51.512;-0.382;2022-11-20T06:55:50;18.52;;;6.28;;
30036;SDS011;36325;51.512;-0.382;2022-11-20T06:58:18;17.00;;;7.45;;
30036;SDS011;36325;51.512;-0.382;2022-11-20T07:00:45;20.15;;;8.55;;
30036;SDS011;36325;51.512;-0.382;2022-11-20T07:03:13;21.20;;;8.93;;
30036;SDS011;36325;51.512;-0.382;2022-11-20T07:05:41;17.40;;;8.23;;
30036;SDS011;36325;51.512;-0.382;2022-11-20T07:08:09;24.50;;;7.70;;
30036;SDS011;36325;51.512;-0.382;2022-11-20T07:10:36;36.20;;;8.95;;
30036;SDS011;36325;51.512;-0.382;2022-11-20T07:13:03;13.85;;;7.25;;
30036;SDS011;36325;51.512;-0.382;2022-11-20T07:15:31;16.80;;;8.15;;
30036;SDS011;36325;51.512;-0.382;2022-11-20T07:17:59;13.90;;;6.57;;
30036;SDS011;36325;51.512;-0.382;2022-11-20T07:20:26;11.75;;;5.05;;
30036;SDS011;36325;51.512;-0.382;2022-11-20T07:22:54;13.57;;;6.18;;
30036;SDS011;36325;51.512;-0.382;2022-11-20T07:25:26;12.98;;;6.45;;
30036;SDS011;36325;51.512;-0.382;2022-11-20T07:27:57;13.65;;;7.03;;
30036;SDS011;36325;51.512;-0.382;2022-11-20T07:30:28;12.37;;;6.37;;
30036;SDS011;36325;51.512;-0.382;2022-11-20T07:32:56;13.48;;;7.20;;
30036;SDS011;36325;51.512;-0.382;2022-11-20T07:35:24;11.95;;;6.85;;
30036;SDS011;36325;51.512;-0.382;2022-11-20T07:37:52;15.57;;;7.43;;
30036;SDS011;36325;51.512;-0.382;2022-11-20T07:40:19;17.58;;;9.00;;
30036;SDS011;36325;51.512;-0.382;2022-11-20T07:42:48;16.40;;;7.88;;
30036;SDS011;36325;51.512;-0.382;2022-11-20T07:45:16;18.65;;;7.70;;
30036;SDS011;36325;51.512;-0.382;2022-11-20T07:47:47;14.13;;;8.30;;
30036;SDS011;36325;51.512;-0.382;2022-11-20T07:50:15;14.35;;;8.18;;
30036;SDS011;36325;51.512;-0.382;2022-11-20T07:52:43;15.30;;;8.15;;
30036;SDS011;36325;51.512;-0.382;2022-11-20T07:55:11;18.38;;;8.57;;
30036;SDS011;36325;51.512;-0.382;2022-11-20T07:57:38;16.95;;;8.57;;
30036;SDS011;36325;51.512;-0.382;2022-11-20T08:00:07;20.08;;;9.52;;
30036;SDS011;36325;51.512;-0.382;2022-11-20T08:02:38;20.45;;;9.63;;
30036;SDS011;36325;51.512;-0.382;2022-11-20T08:05:10;19.90;;;9.47;;
30036;SDS011;36325;51.512;-0.382;2022-11-20T08:07:38;19.20;;;9.23;;
30036;SDS011;36325;51.512;-0.382;2022-11-20T08:10:07;18.70;;;9.98;;
30036;SDS011;36325;51.512;-0.382;2022-11-20T08:12:36;18.42;;;9.57;;
30036;SDS011;36325;51.512;-0.382;2022-11-20T08:15:29;20.00;;;10.32;;
30036;SDS011;36325;51.512;-0.382;2022-11-20T08:18:09;18.00;;;10.10;;
30036;SDS011;36325;51.512;-0.382;2022-11-20T08:20:56;21.85;;;10.75;;
30036;SDS011;36325;51.512;-0.382;2022-11-20T08:23:23;15.95;;;8.43;;
30036;SDS011;36325;51.512;-0.382;2022-11-20T08:25:50;12.57;;;6.80;;
30036;SDS011;36325;51.512;-0.382;2022-11-20T08:28:17;13.13;;;7.13;;
30036;SDS011;36325;51.512;-0.382;2022-11-20T08:30:48;13.60;;;7.05;;
30036;SDS011;36325;51.512;-0.382;2022-11-20T08:33:17;13.15;;;6.88;;
30036;SDS011;36325;51.512;-0.382;2022-11-20T08:35:44;14.45;;;6.22;;
30036;SDS011;36325;51.512;-0.382;2022-11-20T08:38:12;12.48;;;6.50;;
30036;SDS011;36325;51.512;-0.382;2022-11-20T08:40:39;17.45;;;8.43;;
30036;SDS011;36325;51.512;-0.382;2022-11-20T08:43:06;11.38;;;6.07;;
30036;SDS011;36325;51.512;-0.382;2022-11-20T08:45:33;11.32;;;6.85;;
30036;SDS011;36325;51.512;-0.382;2022-11-20T08:48:01;15.93;;;6.85;;
30036;SDS011;36325;51.512;-0.382;2022-11-20T08:50:30;10.80;;;5.78;;
30036;SDS011;36325;51.512;-0.382;2022-11-20T08:53:04;11.70;;;6.93;;
30036;SDS011;36325;51.512;-0.382;2022-11-20T08:55:32;13.02;;;6.40;;
30036;SDS011;36325;51.512;-0.382;2022-11-20T08:58:05;12.57;;;5.65;;
30036;SDS011;36325;51.512;-0.382;2022-11-20T09:00:33;9.00;;;5.88;;
30036;SDS011;36325;51.512;-0.382;2022-11-20T09:03:01;10.25;;;5.40;;
30036;SDS011;36325;51.512;-0.382;2022-11-20T09:05:28;13.10;;;5.43;;
30036;SDS011;36325;51.512;-0.382;2022-11-20T09:07:56;12.13;;;6.25;;
30036;SDS011;36325;51.512;-0.382;2022-11-20T09:10:25;10.27;;;5.57;;
30036;SDS011;36325;51.512;-0.382;2022-11-20T09:12:53;8.82;;;5.55;;
30036;SDS011;36325;51.512;-0.382;2022-11-20T09:15:22;9.27;;;5.25;;
30036;SDS011;36325;51.512;-0.382;2022-11-20T09:17:51;9.88;;;5.55;;
30036;SDS011;36325;51.512;-0.382;2022-11-20T09:20:19;9.80;;;5.63;;
30036;SDS011;36325;51.512;-0.382;2022-11-20T09:22:47;10.00;;;5.22;;
30036;SDS011;36325;51.512;-0.382;2022-11-20T09:25:15;10.40;;;4.95;;
30036;SDS011;36325;51.512;-0.382;2022-11-20T09:27:42;9.82;;;4.65;;
30036;SDS011;36325;51.512;-0.382;2022-11-20T09:30:11;11.13;;;4.43;;
30036;SDS011;36325;51.512;-0.382;2022-11-20T09:32:40;9.38;;;4.75;;
30036;SDS011;36325;51.512;-0.382;2022-11-20T09:35:07;10.07;;;5.75;;
30036;SDS011;36325;51.512;-0.382;2022-11-20T09:37:35;17.45;;;4.97;;
30036;SDS011;36325;51.512;-0.382;2022-11-20T09:40:03;17.77;;;4.28;;
30036;SDS011;36325;51.512;-0.382;2022-11-20T09:45:26;10.55;;;5.40;;
30036;SDS011;36325;51.512;-0.382;2022-11-20T09:50:50;20.20;;;4.95;;
30036;SDS011;36325;51.512;-0.382;2022-11-20T09:56:29;11.73;;;4.70;;
30036;SDS011;36325;51.512;-0.382;2022-11-20T09:58:59;15.93;;;4.25;;
30036;SDS011;36325;51.512;-0.382;2022-11-20T10:01:31;17.67;;;6.53;;
30036;SDS011;36325;51.512;-0.382;2022-11-20T10:09:58;10.35;;;3.53;;
30036;SDS011;36325;51.512;-0.382;2022-11-20T10:15:23;11.45;;;3.20;;
30036;SDS011;36325;51.512;-0.382;2022-11-20T10:21:26;13.93;;;3.15;;
30036;SDS011;36325;51.512;-0.382;2022-11-20T10:23:57;18.23;;;3.38;;
30036;SDS011;36325;51.512;-0.382;2022-11-20T10:29:45;11.93;;;3.58;;
30036;SDS011;36325;51.512;-0.382;2022-11-20T10:32:22;17.60;;;3.58;;
30036;SDS011;36325;51.512;-0.382;2022-11-20T10:34:57;15.30;;;3.40;;
30036;SDS011;36325;51.512;-0.382;2022-11-20T10:37:26;15.07;;;3.27;;
30036;SDS011;36325;51.512;-0.382;2022-11-20T10:42:59;17.02;;;4.15;;
30036;SDS011;36325;51.512;-0.382;2022-11-20T10:45:39;18.50;;;3.75;;
30036;SDS011;36325;51.512;-0.382;2022-11-20T10:48:20;13.98;;;2.90;;
30036;SDS011;36325;51.512;-0.382;2022-11-20T10:59:00;20.52;;;3.75;;
30036;SDS011;36325;51.512;-0.382;2022-11-20T11:01:29;17.38;;;3.63;;
30036;SDS011;36325;51.512;-0.382;2022-11-20T11:03:56;14.55;;;2.72;;
30036;SDS011;36325;51.512;-0.382;2022-11-20T11:06:29;9.00;;;3.38;;
30036;SDS011;36325;51.512;-0.382;2022-11-20T11:09:04;15.15;;;3.53;;
30036;SDS011;36325;51.512;-0.382;2022-11-20T11:11:42;17.45;;;3.40;;
30036;SDS011;36325;51.512;-0.382;2022-11-20T11:14:13;18.65;;;3.47;;
30036;SDS011;36325;51.512;-0.382;2022-11-20T11:16:51;25.98;;;4.35;;
30036;SDS011;36325;51.512;-0.382;2022-11-20T11:19:23;15.40;;;3.45;;
30036;SDS011;36325;51.512;-0.382;2022-11-20T11:21:54;15.70;;;5.28;;
30036;SDS011;36325;51.512;-0.382;2022-11-20T11:24:27;23.05;;;3.88;;
30036;SDS011;36325;51.512;-0.382;2022-11-20T11:27:11;20.17;;;4.60;;
30036;SDS011;36325;51.512;-0.382;2022-11-20T11:29:43;30.63;;;4.43;;
30036;SDS011;36325;51.512;-0.382;2022-11-20T11:32:12;19.80;;;3.58;;
30036;SDS011;36325;51.512;-0.382;2022-11-20T11:35:00;22.52;;;4.28;;
30036;SDS011;36325;51.512;-0.382;2022-11-20T11:37:36;20.25;;;4.43;;
30036;SDS011;36325;51.512;-0.382;2022-11-20T11:40:06;16.45;;;3.30;;
30036;SDS011;36325;51.512;-0.382;2022-11-20T11:42:53;20.95;;;4.00;;
30036;SDS011;36325;51.512;-0.382;2022-11-20T11:45:24;17.80;;;4.15;;
30036;SDS011;36325;51.512;-0.382;2022-11-20T11:47:53;19.17;;;4.03;;
30036;SDS011;36325;51.512;-0.382;2022-11-20T11:50:28;21.20;;;4.90;;
30036;SDS011;36325;51.512;-0.382;2022-11-20T11:55:45;19.05;;;4.13;;
30036;SDS011;36325;51.512;-0.382;2022-11-20T12:01:05;19.08;;;3.55;;
30036;SDS011;36325;51.512;-0.382;2022-11-20T12:04:04;14.43;;;3.65;;
30036;SDS011;36325;51.512;-0.382;2022-11-20T12:07:42;15.80;;;3.28;;
30036;SDS011;36325;51.512;-0.382;2022-11-20T12:15:46;19.10;;;3.72;;
30036;SDS011;36325;51.512;-0.382;2022-11-20T12:18:15;13.20;;;2.65;;
30036;SDS011;36325;51.512;-0.382;2022-11-20T12:20:56;19.20;;;4.30;;
30036;SDS011;36325;51.512;-0.382;2022-11-20T12:26:45;14.00;;;2.95;;
30036;SDS011;36325;51.512;-0.382;2022-11-20T12:29:27;12.00;;;2.97;;
30036;SDS011;36325;51.512;-0.382;2022-11-20T13:08:21;10.43;;;2.47;;
30036;SDS011;36325;51.512;-0.382;2022-11-20T13:10:59;9.80;;;2.10;;
30036;SDS011;36325;51.512;-0.382;2022-11-20T13:19:17;9.02;;;3.13;;
30036;SDS011;36325;51.512;-0.382;2022-11-20T13:21:46;14.57;;;2.65;;
30036;SDS011;36325;51.512;-0.382;2022-11-20T13:29:40;22.25;;;3.80;;
30036;SDS011;36325;51.512;-0.382;2022-11-20T13:32:15;12.88;;;2.80;;
30036;SDS011;36325;51.512;-0.382;2022-11-20T13:34:52;21.77;;;3.42;;
30036;SDS011;36325;51.512;-0.382;2022-11-20T13:37:39;16.08;;;3.35;;
30036;SDS011;36325;51.512;-0.382;2022-11-20T13:45:29;16.58;;;3.05;;
30036;SDS011;36325;51.512;-0.382;2022-11-20T13:47:59;18.77;;;3.58;;
30036;SDS011;36325;51.512;-0.382;2022-11-20T13:53:26;17.75;;;2.55;;
30036;SDS011;36325;51.512;-0.382;2022-11-20T13:56:01;16.50;;;3.08;;
30036;SDS011;36325;51.512;-0.382;2022-11-20T14:01:17;17.02;;;3.65;;
30036;SDS011;36325;51.512;-0.382;2022-11-20T14:03:48;21.08;;;2.88;;
30036;SDS011;36325;51.512;-0.382;2022-11-20T14:06:34;20.33;;;3.03;;
30036;SDS011;36325;51.512;-0.382;2022-11-20T14:09:24;15.25;;;3.45;;
30036;SDS011;36325;51.512;-0.382;2022-11-20T14:11:54;14.10;;;3.08;;
30036;SDS011;36325;51.512;-0.382;2022-11-20T14:14:22;17.88;;;3.17;;
30036;SDS011;36325;51.512;-0.382;2022-11-20T14:16:52;23.95;;;3.72;;
30036;SDS011;36325;51.512;-0.382;2022-11-20T14:21:49;18.25;;;2.78;;
30036;SDS011;36325;51.512;-0.382;2022-11-20T14:24:22;14.88;;;3.20;;
30036;SDS011;36325;51.512;-0.382;2022-11-20T14:26:51;15.50;;;3.70;;
30036;SDS011;36325;51.512;-0.382;2022-11-20T14:29:27;26.92;;;5.07;;
30036;SDS011;36325;51.512;-0.382;2022-11-20T14:31:59;14.73;;;3.25;;
30036;SDS011;36325;51.512;-0.382;2022-11-20T14:34:29;13.18;;;2.72;;
30036;SDS011;36325;51.512;-0.382;2022-11-20T14:36:59;16.95;;;4.32;;
30036;SDS011;36325;51.512;-0.382;2022-11-20T14:39:41;22.13;;;3.70;;
30036;SDS011;36325;51.512;-0.382;2022-11-20T14:42:15;22.27;;;3.88;;
30036;SDS011;36325;51.512;-0.382;2022-11-20T14:44:43;16.80;;;3.42;;
30036;SDS011;36325;51.512;-0.382;2022-11-20T14:47:12;14.43;;;2.85;;
30036;SDS011;36325;51.512;-0.382;2022-11-20T14:49:41;18.42;;;3.33;;
30036;SDS011;36325;51.512;-0.382;2022-11-20T14:52:11;17.00;;;3.30;;
30036;SDS011;36325;51.512;-0.382;2022-11-20T14:57:23;24.67;;;3.05;;
30036;SDS011;36325;51.512;-0.382;2022-11-20T15:02:42;15.95;;;2.97;;
30036;SDS011;36325;51.512;-0.382;2022-11-20T15:05:11;20.73;;;4.10;;
30036;SDS011;36325;51.512;-0.382;2022-11-20T15:07:39;23.23;;;3.58;;
30036;SDS011;36325;51.512;-0.382;2022-11-20T15:12:46;24.08;;;4.18;;
30036;SDS011;36325;51.512;-0.382;2022-11-20T15:15:36;17.60;;;3.22;;
30036;SDS011;36325;51.512;-0.382;2022-11-20T15:18:19;22.73;;;4.18;;
30036;SDS011;36325;51.512;-0.382;2022-11-20T15:20:49;19.87;;;3.60;;
30036;SDS011;36325;51.512;-0.382;2022-11-20T15:23:18;17.42;;;3.58;;
30036;SDS011;36325;51.512;-0.382;2022-11-20T15:25:46;22.38;;;3.80;;
30036;SDS011;36325;51.512;-0.382;2022-11-20T15:30:49;26.58;;;4.03;;
30036;SDS011;36325;51.512;-0.382;2022-11-20T15:33:17;19.08;;;3.95;;
30036;SDS011;36325;51.512;-0.382;2022-11-20T15:35:45;19.33;;;3.13;;
30036;SDS011;36325;51.512;-0.382;2022-11-20T15:38:12;13.95;;;2.83;;
30036;SDS011;36325;51.512;-0.382;2022-11-20T15:40:40;12.20;;;2.03;;
30036;SDS011;36325;51.512;-0.382;2022-11-20T15:43:07;13.70;;;2.53;;
30036;SDS011;36325;51.512;-0.382;2022-11-20T15:45:40;12.90;;;3.33;;
30036;SDS011;36325;51.512;-0.382;2022-11-20T15:50:54;9.23;;;2.53;;
30036;SDS011;36325;51.512;-0.382;2022-11-20T15:53:22;15.70;;;2.50;;
30036;SDS011;36325;51.512;-0.382;2022-11-20T15:55:49;10.60;;;2.40;;
30036;SDS011;36325;51.512;-0.382;2022-11-20T15:58:17;13.27;;;2.65;;
30036;SDS011;36325;51.512;-0.382;2022-11-20T16:00:44;18.25;;;2.72;;
30036;SDS011;36325;51.512;-0.382;2022-11-20T16:03:12;12.98;;;2.85;;
30036;SDS011;36325;51.512;-0.382;2022-11-20T16:05:40;11.27;;;2.50;;
30036;SDS011;36325;51.512;-0.382;2022-11-20T16:08:07;12.77;;;2.28;;
30036;SDS011;36325;51.512;-0.382;2022-11-20T16:10:37;12.57;;;2.00;;
30036;SDS011;36325;51.512;-0.382;2022-11-20T16:13:05;14.77;;;2.90;;
30036;SDS011;36325;51.512;-0.382;2022-11-20T16:15:59;10.93;;;2.22;;
30036;SDS011;36325;51.512;-0.382;2022-11-20T16:18:28;16.48;;;2.92;;
30036;SDS011;36325;51.512;-0.382;2022-11-20T16:20:55;11.02;;;2.53;;
30036;SDS011;36325;51.512;-0.382;2022-11-20T16:23:23;13.63;;;3.20;;
30036;SDS011;36325;51.512;-0.382;2022-11-20T16:25:50;9.43;;;2.45;;
30036;SDS011;36325;51.512;-0.382;2022-11-20T16:28:18;16.13;;;2.60;;
30036;SDS011;36325;51.512;-0.382;2022-11-20T16:30:46;15.70;;;2.92;;
30036;SDS011;36325;51.512;-0.382;2022-11-20T16:33:14;15.40;;;2.30;;
30036;SDS011;36325;51.512;-0.382;2022-11-20T16:35:47;10.35;;;2.50;;
30036;SDS011;36325;51.512;-0.382;2022-11-20T16:38:15;15.80;;;2.28;;
30036;SDS011;36325;51.512;-0.382;2022-11-20T16:40:42;14.35;;;2.58;;
30036;SDS011;36325;51.512;-0.382;2022-11-20T16:43:10;10.00;;;2.13;;
30036;SDS011;36325;51.512;-0.382;2022-11-20T16:45:40;11.40;;;2.63;;
30036;SDS011;36325;51.512;-0.382;2022-11-20T16:48:13;15.27;;;2.33;;
30036;SDS011;36325;51.512;-0.382;2022-11-20T16:50:49;5.90;;;1.85;;
30036;SDS011;36325;51.512;-0.382;2022-11-20T16:53:19;13.60;;;1.98;;
30036;SDS011;36325;51.512;-0.382;2022-11-20T16:55:47;11.40;;;2.10;;
30036;SDS011;36325;51.512;-0.382;2022-11-20T16:58:15;9.80;;;1.50;;